Time;durP1;ratioP1;P1;durP2;ratioP2;P2;SDS_P1;SDS_P2;PMS_P1;PMS_P2;Temp;Humidity;BMP_temperature;BMP_pressure;BME280_temperature;BME280_humidity;BME280_pressure;Samples;Min_cycle;Max_cycle;Signal;HPM_P1;HPM_P2
2021/01/28 00:00:11;;;;;;;17.33;7.17;;;6.00;39.80;;;;;;5096125;28;20199;-69
2021/01/28 00:02:36;;;;;;;22.40;7.00;;;6.00;1.00;;;;;;5095783;28;20191;-69
2021/01/28 00:05:03;;;;;;;10.60;7.23;;;6.00;1.00;;;;;;5095037;28;20553;-69
2021/01/28 00:07:28;;;;;;;9.68;6.38;;;6.00;1.00;;;;;;5095864;28;20187;-68
2021/01/28 00:09:54;;;;;;;9.30;6.50;;;6.00;1.00;;;;;;5095646;28;20206;-69
2021/01/28 00:12:20;;;;;;;12.23;6.17;;;6.00;99.90;;;;;;5095891;28;20179;-68
2021/01/28 00:14:45;;;;;;;14.10;7.17;;;6.00;1.00;;;;;;5095888;28;20167;-68
2021/01/28 00:17:11;;;;;;;10.03;5.83;;;6.10;1.00;;;;;;5095804;28;20527;-69
2021/01/28 00:19:36;;;;;;;11.37;5.77;;;6.00;99.90;;;;;;5095611;28;20734;-69
2021/01/28 00:22:02;;;;;;;10.40;6.10;;;6.00;1.00;;;;;;5095675;28;20255;-69
2021/01/28 00:24:28;;;;;;;7.97;5.97;;;6.00;1.00;;;;;;5095798;28;20710;-69
2021/01/28 00:26:53;;;;;;;11.20;6.00;;;6.10;1.00;;;;;;5095691;28;20163;-69
2021/01/28 00:29:19;;;;;;;16.17;6.50;;;6.00;99.90;;;;;;5095148;28;20175;-68
2021/01/28 00:31:44;;;;;;;13.60;6.10;;;6.00;99.90;;;;;;5095362;28;20216;-69
2021/01/28 00:34:10;;;;;;;14.87;6.10;;;6.00;1.00;;;;;;5095651;28;20171;-69
2021/01/28 00:36:35;;;;;;;10.00;5.40;;;5.90;1.00;;;;;;5095459;28;20199;-69
2021/01/28 00:39:01;;;;;;;8.33;6.30;;;6.00;63.90;;;;;;5095494;28;20170;-69
2021/01/28 00:41:27;;;;;;;10.88;5.82;;;6.00;1.00;;;;;;5095293;28;20702;-69
2021/01/28 00:43:53;;;;;;;15.27;6.20;;;6.00;99.90;;;;;;5095196;28;20180;-68
2021/01/28 00:46:18;;;;;;;11.17;5.93;;;6.00;1.00;;;;;;5094981;28;20539;-69
2021/01/28 00:48:45;;;;;;;12.67;7.00;;;6.10;99.90;;;;;;5094945;28;20182;-69
2021/01/28 00:51:10;;;;;;;8.73;6.05;;;5.90;99.90;;;;;;5095333;28;20663;-69
2021/01/28 00:53:36;;;;;;;9.83;5.60;;;6.00;99.90;;;;;;5094910;28;20168;-69
2021/01/28 00:56:02;;;;;;;13.37;5.90;;;6.00;33.70;;;;;;5095159;28;20163;-69
2021/01/28 00:58:27;;;;;;;10.70;6.00;;;6.00;99.90;;;;;;5095090;28;20212;-69
2021/01/28 01:00:54;;;;;;;15.33;5.90;;;6.10;99.90;;;;;;5094705;28;20403;-68
2021/01/28 01:03:22;;;;;;;12.40;5.50;;;6.00;99.90;;;;;;5094645;28;20715;-69
2021/01/28 01:05:49;;;;;;;11.90;6.05;;;6.10;99.90;;;;;;5094676;28;20666;-69
2021/01/28 01:08:26;;;;;;;8.35;6.28;;;6.10;99.90;;;;;;5094487;28;20667;-68
2021/01/28 01:10:52;;;;;;;8.57;5.85;;;6.00;99.90;;;;;;5094471;28;20256;-69
2021/01/28 01:13:21;;;;;;;9.63;5.97;;;5.90;1.00;;;;;;5094926;28;20168;-69
2021/01/28 01:15:47;;;;;;;12.65;6.22;;;6.00;99.90;;;;;;5094594;28;20185;-69
2021/01/28 01:18:16;;;;;;;10.55;6.32;;;6.10;46.30;;;;;;5094617;28;20175;-69
2021/01/28 01:20:42;;;;;;;12.98;6.00;;;6.10;1.00;;;;;;5095448;28;20226;-69
2021/01/28 01:23:07;;;;;;;10.10;6.40;;;6.10;1.00;;;;;;5095114;28;20179;-69
2021/01/28 01:25:33;;;;;;;10.10;6.20;;;5.90;99.90;;;;;;5094616;28;20266;-69
2021/01/28 01:27:58;;;;;;;8.47;5.80;;;6.00;1.00;;;;;;5094421;28;20410;-69
2021/01/28 01:30:25;;;;;;;12.83;6.30;;;5.90;99.90;;;;;;5094054;28;20207;-69
2021/01/28 01:32:51;;;;;;;12.73;6.93;;;5.90;31.80;;;;;;5094007;28;20215;-69
2021/01/28 01:35:19;;;;;;;8.17;5.50;;;6.00;1.00;;;;;;5093855;28;20178;-69
2021/01/28 01:37:45;;;;;;;8.73;5.80;;;6.00;99.90;;;;;;5094298;28;20163;-68
2021/01/28 01:40:16;;;;;;;10.77;6.45;;;6.00;1.00;;;;;;5094002;28;20282;-68
2021/01/28 01:42:46;;;;;;;10.30;5.45;;;5.80;99.90;;;;;;5094322;28;20194;-69
2021/01/28 01:45:12;;;;;;;15.50;5.90;;;5.90;1.00;;;;;;5094110;28;20167;-68
2021/01/28 01:47:53;;;;;;;8.85;4.97;;;6.00;99.90;;;;;;5093916;28;20655;-68
2021/01/28 01:50:38;;;;;;;13.52;5.70;;;5.90;1.00;;;;;;5093793;28;20273;-68
2021/01/28 01:53:06;;;;;;;10.65;5.65;;;6.00;1.00;;;;;;5094457;28;20201;-69
2021/01/28 01:55:32;;;;;;;10.07;6.13;;;5.90;99.90;;;;;;5093800;28;20167;-69
2021/01/28 01:58:03;;;;;;;10.45;5.53;;;5.90;99.90;;;;;;5093734;28;20666;-68
2021/01/28 02:00:29;;;;;;;12.10;5.85;;;5.90;1.00;;;;;;5093982;28;20698;-68
2021/01/28 02:03:00;;;;;;;12.07;5.40;;;5.90;99.90;;;;;;5093681;28;20172;-69
2021/01/28 02:05:30;;;;;;;9.35;5.95;;;5.90;99.90;;;;;;5092390;28;20770;-69
2021/01/28 02:07:57;;;;;;;12.70;5.63;;;5.90;1.00;;;;;;5093547;28;20252;-69
2021/01/28 02:10:24;;;;;;;10.13;6.00;;;5.80;1.00;;;;;;5097753;28;20312;-69
2021/01/28 02:12:52;;;;;;;9.05;5.80;;;5.80;99.90;;;;;;5095046;28;20309;-69
2021/01/28 02:15:18;;;;;;;12.18;6.18;;;5.80;99.90;;;;;;5096518;28;20164;-69
2021/01/28 02:17:50;;;;;;;16.08;5.90;;;5.80;27.20;;;;;;5094830;28;20172;-69
2021/01/28 02:20:50;;;;;;;12.55;6.30;;;5.70;1.00;;;;;;5092990;28;20270;-69
2021/01/28 02:23:27;;;;;;;8.88;5.05;;;5.70;99.90;;;;;;5093460;28;20168;-69
2021/01/28 02:25:53;;;;;;;11.80;7.03;;;5.80;99.90;;;;;;5092074;28;20163;-69
2021/01/28 02:28:20;;;;;;;8.52;4.97;;;5.70;99.90;;;;;;5092943;28;20178;-68
2021/01/28 02:30:48;;;;;;;12.75;4.50;;;5.70;1.00;;;;;;5091925;28;20261;-69
2021/01/28 02:33:36;;;;;;;9.88;5.47;;;5.80;99.90;;;;;;5093345;28;20183;-69
2021/01/28 02:36:03;;;;;;;10.63;5.63;;;5.80;1.00;;;;;;5093318;28;20152;-69
2021/01/28 02:38:28;;;;;;;9.05;5.95;;;5.80;1.00;;;;;;5093502;28;20249;-69
2021/01/28 02:40:54;;;;;;;8.70;5.63;;;5.90;1.00;;;;;;5093143;28;20226;-69
2021/01/28 02:43:20;;;;;;;8.98;5.75;;;5.60;99.90;;;;;;5093119;28;20182;-68
2021/01/28 02:45:45;;;;;;;12.53;5.13;;;5.50;99.90;;;;;;5093135;28;20164;-69
2021/01/28 02:48:11;;;;;;;7.67;4.30;;;5.60;1.00;;;;;;5093120;28;20167;-69
2021/01/28 02:50:37;;;;;;;10.23;5.15;;;5.70;1.00;;;;;;5092905;28;20585;-69
2021/01/28 02:53:06;;;;;;;13.35;5.20;;;5.90;99.90;;;;;;5093133;28;20177;-69
2021/01/28 02:55:33;;;;;;;6.15;4.30;;;5.90;1.00;;;;;;5093066;28;20593;-69
2021/01/28 02:57:59;;;;;;;8.07;5.03;;;5.90;99.90;;;;;;5093074;28;20169;-69
2021/01/28 03:00:28;;;;;;;10.60;5.00;;;6.00;1.00;;;;;;5092976;28;20188;-69
2021/01/28 03:02:54;;;;;;;9.73;4.75;;;5.90;1.00;;;;;;5092891;28;20405;-69
2021/01/28 03:05:20;;;;;;;10.23;4.80;;;6.00;1.00;;;;;;5093209;28;20176;-69
2021/01/28 03:07:47;;;;;;;7.97;4.60;;;5.90;99.90;;;;;;5092875;28;20421;-69
2021/01/28 03:10:13;;;;;;;6.22;4.60;;;5.90;99.90;;;;;;5093133;28;20630;-69
2021/01/28 03:12:38;;;;;;;7.75;4.32;;;5.90;99.90;;;;;;5093231;28;20199;-69
2021/01/28 03:15:08;;;;;;;7.80;4.27;;;5.90;99.90;;;;;;5093130;28;20262;-68
2021/01/28 03:17:33;;;;;;;7.38;4.30;;;5.80;99.90;;;;;;5091631;28;20554;-69
2021/01/28 03:19:59;;;;;;;7.50;4.93;;;5.80;1.00;;;;;;5092785;28;20212;-69
2021/01/28 03:22:24;;;;;;;8.23;5.00;;;5.80;99.90;;;;;;5093705;28;20176;-69
2021/01/28 03:24:50;;;;;;;10.13;5.07;;;5.80;1.00;;;;;;5092828;28;20179;-69
2021/01/28 03:27:16;;;;;;;7.23;4.47;;;5.80;4.80;;;;;;5092760;28;20531;-69
2021/01/28 03:29:41;;;;;;;6.40;4.40;;;5.90;1.00;;;;;;5092612;28;20203;-69
2021/01/28 03:32:07;;;;;;;11.20;4.67;;;5.90;1.00;;;;;;5092716;28;20410;-69
2021/01/28 03:34:35;;;;;;;7.03;3.77;;;6.00;1.00;;;;;;5092754;28;20167;-69
2021/01/28 03:37:01;;;;;;;6.35;3.92;;;5.90;1.00;;;;;;5092787;28;20171;-69
2021/01/28 03:39:26;;;;;;;12.32;4.03;;;6.00;1.00;;;;;;5093492;28;20164;-69
2021/01/28 03:41:52;;;;;;;6.73;4.03;;;6.00;1.00;;;;;;5096381;28;20174;-69
2021/01/28 03:44:17;;;;;;;10.20;5.27;;;5.90;99.90;;;;;;5096292;28;20625;-68
2021/01/28 03:46:43;;;;;;;6.00;3.90;;;5.80;1.00;;;;;;5096424;28;20171;-69
2021/01/28 03:49:08;;;;;;;5.27;3.40;;;5.80;99.90;;;;;;5096141;28;20164;-69
2021/01/28 03:51:34;;;;;;;13.30;4.50;;;5.70;1.00;;;;;;5096025;28;20620;-69
2021/01/28 03:53:59;;;;;;;6.10;4.37;;;5.70;99.90;;;;;;5095911;28;20160;-69
2021/01/28 03:56:25;;;;;;;6.90;4.37;;;5.70;1.00;;;;;;5096338;28;20742;-68
2021/01/28 03:58:50;;;;;;;11.10;3.73;;;5.70;87.30;;;;;;5095967;28;20163;-69
2021/01/28 04:01:16;;;;;;;5.40;3.13;;;5.70;74.50;;;;;;5095797;28;20187;-69
2021/01/28 04:03:41;;;;;;;10.27;4.77;;;5.60;93.10;;;;;;5095794;28;20254;-69
2021/01/28 04:06:07;;;;;;;7.97;4.60;;;5.70;99.90;;;;;;5095880;28;20541;-68
2021/01/28 04:08:32;;;;;;;6.60;4.10;;;5.70;99.90;;;;;;5095631;28;20199;-69
2021/01/28 04:10:58;;;;;;;6.47;4.23;;;5.80;99.90;;;;;;5095628;28;20195;-69
2021/01/28 04:13:23;;;;;;;6.70;4.03;;;5.70;99.80;;;;;;5095852;28;20167;-69
2021/01/28 04:15:49;;;;;;;5.20;3.63;;;5.80;99.90;;;;;;5095558;28;20174;-69
2021/01/28 04:18:19;;;;;;;5.50;3.63;;;5.70;99.90;;;;;;5095530;28;20156;-69
2021/01/28 04:20:45;;;;;;;6.38;4.72;;;5.70;99.90;;;;;;5095422;28;20256;-69
2021/01/28 04:23:10;;;;;;;5.10;3.47;;;5.70;99.90;;;;;;5095411;28;20198;-69
2021/01/28 04:25:36;;;;;;;3.87;3.27;;;5.80;99.90;;;;;;5095412;28;20171;-69
2021/01/28 04:28:01;;;;;;;8.57;3.60;;;5.80;99.90;;;;;;5095600;28;20172;-69
2021/01/28 04:30:31;;;;;;;5.37;2.70;;;5.90;44.50;;;;;;5096059;28;20207;-69
2021/01/28 04:33:02;;;;;;;3.50;3.15;;;5.80;1.00;;;;;;5095714;28;20557;-69
2021/01/28 04:35:28;;;;;;;5.13;2.97;;;5.80;1.00;;;;;;5095145;28;20247;-69
2021/01/28 04:37:54;;;;;;;6.03;3.27;;;5.80;1.00;;;;;;5095222;28;20195;-69
2021/01/28 04:40:40;;;;;;;4.70;2.87;;;5.90;1.00;;;;;;5095533;28;20194;-69
2021/01/28 04:43:23;;;;;;;3.45;3.05;;;5.80;99.90;;;;;;5095591;28;20201;-67
2021/01/28 04:45:50;;;;;;;7.05;3.88;;;5.70;99.90;;;;;;5095045;28;20167;-69
2021/01/28 04:48:18;;;;;;;5.93;3.28;;;5.80;1.00;;;;;;5094909;28;20175;-69
2021/01/28 04:50:44;;;;;;;5.95;3.95;;;5.80;99.90;;;;;;5094685;28;20220;-67
2021/01/28 04:53:18;;;;;;;5.05;3.47;;;5.80;12.10;;;;;;5094481;28;20168;-69
2021/01/28 04:55:47;;;;;;;4.18;3.30;;;5.70;1.00;;;;;;5094646;28;20167;-69
2021/01/28 04:58:13;;;;;;;3.90;3.30;;;5.60;1.00;;;;;;5094839;28;20337;-68
2021/01/28 05:00:39;;;;;;;6.07;3.30;;;5.70;21.20;;;;;;5094666;28;20583;-69
2021/01/28 05:03:18;;;;;;;3.83;3.40;;;5.80;99.90;;;;;;5094586;28;20172;-68
2021/01/28 05:05:45;;;;;;;5.70;3.85;;;5.70;99.90;;;;;;5094614;28;20394;-68
2021/01/28 05:08:11;;;;;;;3.15;2.60;;;5.70;99.90;;;;;;5094423;28;20187;-69
2021/01/28 05:10:43;;;;;;;3.00;2.20;;;5.70;1.00;;;;;;5094282;28;20195;-69
2021/01/28 05:13:09;;;;;;;6.05;3.58;;;5.50;1.00;;;;;;5094700;28;20159;-69
2021/01/28 05:15:40;;;;;;;5.20;2.93;;;5.70;99.90;;;;;;5094246;28;20170;-69
2021/01/28 05:18:27;;;;;;;4.35;3.25;;;5.70;1.00;;;;;;5094681;28;20476;-67
2021/01/28 05:21:01;;;;;;;3.97;3.10;;;5.70;1.00;;;;;;5094503;28;20183;-69
2021/01/28 05:23:35;;;;;;;3.63;2.88;;;5.70;1.00;;;;;;5094558;28;20162;-68
2021/01/28 05:26:02;;;;;;;3.28;2.63;;;5.70;99.90;;;;;;5094514;28;20528;-68
2021/01/28 05:28:41;;;;;;;3.47;2.95;;;5.70;99.90;;;;;;5094133;28;20195;-69
2021/01/28 05:31:14;;;;;;;3.90;2.90;;;5.80;99.90;;;;;;5093961;28;20714;-69
2021/01/28 05:33:41;;;;;;;5.95;3.60;;;5.70;99.90;;;;;;5094224;28;20254;-69
2021/01/28 05:36:12;;;;;;;5.13;3.13;;;5.70;1.00;;;;;;5093968;28;20167;-68
2021/01/28 05:38:44;;;;;;;6.68;3.70;;;5.70;1.00;;;;;;5093989;28;20196;-69
2021/01/28 05:41:24;;;;;;;3.80;3.10;;;5.80;1.00;;;;;;5093895;28;20617;-69
2021/01/28 05:43:50;;;;;;;4.65;3.50;;;5.80;99.90;;;;;;5094177;28;20152;-69
2021/01/28 05:46:26;;;;;;;3.10;2.67;;;5.90;99.90;;;;;;5093870;28;20167;-68
2021/01/28 05:49:10;;;;;;;4.10;3.17;;;5.80;99.90;;;;;;5093701;28;20570;-69
2021/01/28 05:51:42;;;;;;;5.53;3.53;;;5.80;99.90;;;;;;5093875;28;20252;-69
2021/01/28 05:54:17;;;;;;;5.18;3.30;;;5.80;99.90;;;;;;5093651;28;20164;-67
2021/01/28 05:57:17;;;;;;;5.07;3.53;;;5.80;99.90;;;;;;5093664;28;20156;-69
2021/01/28 05:59:52;;;;;;;6.55;3.47;;;5.70;1.00;;;;;;5092286;28;20195;-69
2021/01/28 06:02:40;;;;;;;3.63;2.95;;;5.80;1.00;;;;;;5093276;28;20151;-69
2021/01/28 06:05:18;;;;;;;6.93;4.95;;;5.70;1.00;;;;;;5093012;28;20175;-69
2021/01/28 06:07:51;;;;;;;5.97;4.00;;;5.80;99.90;;;;;;5093166;28;20191;-67
2021/01/28 06:10:38;;;;;;;4.65;3.90;;;5.70;99.90;;;;;;5093446;28;20256;-69
2021/01/28 06:13:46;;;;;;;5.60;3.88;;;5.70;1.00;;;;;;5093477;28;20171;-68
2021/01/28 06:16:28;;;;;;;5.75;3.95;;;5.60;1.00;;;;;;5071496;28;20203;-68
2021/01/28 06:19:24;;;;;;;5.32;4.18;;;5.60;1.00;;;;;;5091804;28;20177;-69
2021/01/28 06:21:57;;;;;;;8.95;5.03;;;5.40;1.00;;;;;;5093427;28;20155;-69
2021/01/28 06:24:23;;;;;;;8.70;4.40;;;5.20;99.90;;;;;;5093320;28;20160;-67
2021/01/28 06:27:09;;;;;;;6.73;5.13;;;5.40;99.90;;;;;;5093321;28;20213;-68
2021/01/28 06:30:01;;;;;;;7.95;5.47;;;5.30;99.90;;;;;;5093334;28;20643;-67
2021/01/28 06:32:36;;;;;;;7.38;4.65;;;5.50;99.90;;;;;;5093237;28;20221;-69
2021/01/28 06:35:26;;;;;;;5.20;4.07;;;5.50;99.90;;;;;;5092939;28;20174;-68
2021/01/28 06:38:28;;;;;;;6.90;4.95;;;5.50;74.40;;;;;;5093170;28;20665;-69
2021/01/28 06:40:58;;;;;;;8.93;4.80;;;5.50;99.90;;;;;;5093044;28;20597;-69
2021/01/28 06:44:10;;;;;;;6.47;4.35;;;5.30;23.00;;;;;;5092226;28;20228;-68
2021/01/28 06:46:51;;;;;;;9.35;5.22;;;5.20;1.00;;;;;;5063415;28;20191;-69
2021/01/28 06:49:27;;;;;;;7.10;5.40;;;5.10;1.00;;;;;;5093177;28;20159;-68
2021/01/28 06:52:27;;;;;;;5.00;4.18;;;5.20;54.10;;;;;;5093221;28;20243;-68
2021/01/28 06:55:06;;;;;;;5.43;4.20;;;5.40;99.90;;;;;;5093077;28;20167;-68
2021/01/28 06:57:48;;;;;;;7.10;4.97;;;5.30;99.90;;;;;;5092725;28;20159;-68
2021/01/28 07:00:31;;;;;;;6.68;4.22;;;5.40;99.90;;;;;;5090831;28;20253;-67
2021/01/28 07:03:20;;;;;;;5.95;4.50;;;5.50;1.00;;;;;;5092915;28;20155;-68
2021/01/28 07:06:21;;;;;;;7.78;5.25;;;5.30;99.90;;;;;;5091417;28;20170;-68
2021/01/28 07:09:07;;;;;;;11.40;5.10;;;5.40;14.00;;;;;;5092847;28;20167;-68
2021/01/28 07:11:35;;;;;;;4.85;3.90;;;5.50;1.00;;;;;;5092480;28;20575;-68
2021/01/28 07:14:02;;;;;;;5.43;3.72;;;5.50;99.90;;;;;;5092590;28;20532;-69
2021/01/28 07:16:42;;;;;;;5.20;4.00;;;5.50;1.00;;;;;;5096965;28;20168;-68
2021/01/28 07:19:16;;;;;;;4.63;3.50;;;5.40;99.90;;;;;;5096757;28;20252;-69
2021/01/28 07:21:46;;;;;;;5.47;3.83;;;5.50;1.00;;;;;;5096797;28;20579;-67
2021/01/28 07:24:32;;;;;;;4.18;3.30;;;5.50;99.90;;;;;;5096525;28;20532;-68
2021/01/28 07:27:06;;;;;;;5.10;4.18;;;5.60;1.00;;;;;;5096465;28;20159;-68
2021/01/28 07:29:44;;;;;;;6.95;2.95;;;5.50;1.00;;;;;;5096410;28;20151;-67
2021/01/28 07:32:31;;;;;;;9.52;4.00;;;5.50;99.90;;;;;;5096561;28;20190;-69
2021/01/28 07:35:24;;;;;;;5.05;3.85;;;5.60;1.00;;;;;;5096078;28;20205;-68
2021/01/28 07:37:50;;;;;;;6.18;4.00;;;5.50;99.90;;;;;;5096016;28;20163;-67
2021/01/28 07:40:53;;;;;;;4.60;3.20;;;5.60;1.00;;;;;;5096061;28;20198;-68
2021/01/28 07:43:30;;;;;;;6.45;3.40;;;5.60;1.00;;;;;;5096056;28;20197;-69
2021/01/28 07:46:26;;;;;;;3.65;2.83;;;5.60;1.00;;;;;;5095772;28;20181;-68
2021/01/28 07:49:09;;;;;;;5.15;3.65;;;5.30;99.90;;;;;;5096233;28;20168;-68
2021/01/28 07:51:38;;;;;;;4.53;3.20;;;5.50;54.70;;;;;;5095786;28;20191;-68
2021/01/28 07:54:22;;;;;;;4.75;3.67;;;5.40;99.90;;;;;;5095696;28;20285;-67
2021/01/28 07:56:52;;;;;;;3.30;3.00;;;5.30;1.00;;;;;;5095993;28;20176;-69
2021/01/28 07:59:46;;;;;;;6.10;3.55;;;5.40;1.00;;;;;;5095514;28;20198;-69
2021/01/28 08:02:29;;;;;;;4.18;3.15;;;5.60;99.90;;;;;;5095554;28;20658;-69
2021/01/28 08:04:57;;;;;;;5.95;3.45;;;5.50;91.50;;;;;;5095874;28;20151;-68
2021/01/28 08:07:29;;;;;;;3.80;2.45;;;5.50;99.90;;;;;;5095436;28;20590;-68
2021/01/28 08:09:57;;;;;;;3.53;2.92;;;5.60;99.90;;;;;;5095632;28;20751;-68
2021/01/28 08:12:49;;;;;;;3.30;2.25;;;5.80;64.00;;;;;;5095501;28;20332;-68
2021/01/28 08:15:19;;;;;;;4.05;2.22;;;5.60;99.90;;;;;;5095600;28;20197;-68
2021/01/28 08:17:45;;;;;;;6.07;2.55;;;5.50;99.90;;;;;;5095424;28;20167;-68
2021/01/28 08:20:24;;;;;;;2.33;2.03;;;5.60;99.90;;;;;;5095352;28;20195;-68
2021/01/28 08:22:52;;;;;;;8.52;2.03;;;5.50;1.00;;;;;;5095426;28;20220;-68
2021/01/28 08:25:18;;;;;;;3.78;2.15;;;5.60;99.90;;;;;;5095274;28;20171;-68
2021/01/28 08:27:43;;;;;;;3.63;2.67;;;5.70;99.90;;;;;;5094317;28;20164;-68
2021/01/28 08:30:23;;;;;;;4.80;2.17;;;5.80;99.90;;;;;;5095071;28;20195;-68
2021/01/28 08:32:55;;;;;;;2.55;2.25;;;5.50;99.90;;;;;;5095305;28;20156;-69
2021/01/28 08:35:27;;;;;;;6.45;3.20;;;5.50;99.90;;;;;;5094976;28;20164;-69
2021/01/28 08:38:15;;;;;;;4.25;2.30;;;5.50;13.00;;;;;;5095137;28;20247;-68
2021/01/28 08:40:43;;;;;;;2.90;2.47;;;5.50;53.50;;;;;;5094872;28;20556;-69
2021/01/28 08:43:15;;;;;;;3.72;1.95;;;5.70;1.00;;;;;;5094895;28;20171;-68
2021/01/28 08:45:42;;;;;;;4.10;2.13;;;5.70;99.90;;;;;;5095181;28;20608;-69
2021/01/28 08:48:13;;;;;;;4.45;2.10;;;5.80;99.90;;;;;;5094843;28;20221;-69
2021/01/28 08:50:38;;;;;;;3.92;2.25;;;5.80;99.90;;;;;;5094862;28;20525;-69
2021/01/28 08:53:07;;;;;;;3.73;2.13;;;5.80;1.00;;;;;;5094916;28;20217;-68
2021/01/28 08:55:37;;;;;;;2.95;2.10;;;5.90;99.90;;;;;;5094856;28;20194;-69
2021/01/28 08:58:22;;;;;;;3.47;1.60;;;5.80;1.00;;;;;;5094866;28;20603;-69
2021/01/28 09:00:54;;;;;;;3.20;2.50;;;5.90;99.90;;;;;;5094636;28;20187;-68
2021/01/28 09:03:26;;;;;;;2.42;1.70;;;5.90;99.90;;;;;;5094966;28;20163;-69
2021/01/28 09:05:52;;;;;;;6.07;2.05;;;6.00;27.80;;;;;;5094543;28;20164;-68
2021/01/28 09:08:29;;;;;;;2.30;1.65;;;6.00;1.00;;;;;;5094283;28;20183;-70
2021/01/28 09:11:11;;;;;;;4.53;2.22;;;5.80;99.90;;;;;;5094000;28;20191;-69
2021/01/28 09:13:37;;;;;;;2.90;1.83;;;5.80;1.00;;;;;;5094244;28;20151;-69
2021/01/28 09:16:19;;;;;;;3.15;1.95;;;5.70;1.00;;;;;;5094053;28;20168;-69
2021/01/28 09:18:50;;;;;;;1.77;1.52;;;5.90;21.90;;;;;;5094238;28;20657;-69
2021/01/28 09:21:19;;;;;;;2.22;1.50;;;5.60;99.90;;;;;;5094225;28;20187;-68
2021/01/28 09:24:03;;;;;;;2.88;1.75;;;5.70;99.90;;;;;;5094374;28;20632;-68
2021/01/28 09:26:36;;;;;;;2.30;1.67;;;5.60;1.00;;;;;;5092950;28;20198;-69
2021/01/28 09:29:30;;;;;;;2.53;2.10;;;5.70;99.90;;;;;;5094733;28;20250;-68
2021/01/28 09:32:05;;;;;;;2.28;1.63;;;5.70;1.00;;;;;;5093744;28;20156;-68
2021/01/28 09:34:31;;;;;;;3.03;1.75;;;5.80;99.90;;;;;;5094037;28;20642;-67
2021/01/28 09:37:06;;;;;;;3.27;1.50;;;5.70;1.00;;;;;;5093999;28;20195;-70
2021/01/28 09:39:42;;;;;;;4.82;1.90;;;5.80;99.90;;;;;;5093831;28;20601;-69
2021/01/28 09:42:21;;;;;;;2.40;1.65;;;5.90;99.90;;;;;;5094365;28;20216;-67
2021/01/28 09:44:49;;;;;;;1.23;1.13;;;5.90;99.90;;;;;;5093974;28;20144;-69
2021/01/28 09:47:31;;;;;;;2.00;1.35;;;5.90;99.90;;;;;;5093851;28;20528;-68
2021/01/28 09:50:07;;;;;;;2.50;1.35;;;6.00;99.90;;;;;;5093919;28;20195;-68
2021/01/28 09:52:39;;;;;;;5.13;1.85;;;6.00;99.90;;;;;;5093424;28;20590;-68
2021/01/28 09:55:14;;;;;;;1.77;1.50;;;6.00;99.90;;;;;;5093502;28;20558;-69
2021/01/28 09:57:39;;;;;;;2.47;1.13;;;6.00;99.90;;;;;;5093637;28;20183;-68
2021/01/28 10:00:08;;;;;;;4.43;1.43;;;6.00;99.90;;;;;;5092232;28;20195;-68
2021/01/28 10:02:37;;;;;;;2.50;1.40;;;5.70;1.00;;;;;;5093276;28;20172;-68
2021/01/28 10:05:04;;;;;;;4.57;1.55;;;5.70;99.90;;;;;;5093428;28;20168;-66
2021/01/28 10:07:29;;;;;;;2.00;1.33;;;5.90;1.00;;;;;;5093287;28;20199;-70
2021/01/28 10:09:55;;;;;;;2.37;1.50;;;5.90;1.00;;;;;;5093585;28;20561;-67
2021/01/28 10:12:24;;;;;;;2.50;1.60;;;5.90;99.90;;;;;;5093649;28;20518;-68
2021/01/28 10:14:49;;;;;;;2.47;1.48;;;6.00;99.90;;;;;;5093591;28;20195;-67
2021/01/28 10:17:15;;;;;;;1.70;1.30;;;6.10;99.90;;;;;;5093294;28;20210;-68
2021/01/28 10:19:43;;;;;;;4.50;0.93;;;6.10;1.00;;;;;;5093224;28;20183;-68
2021/01/28 10:22:10;;;;;;;1.98;1.10;;;6.20;99.90;;;;;;5092982;28;20640;-68
2021/01/28 10:24:35;;;;;;;1.50;1.10;;;6.00;99.90;;;;;;5093277;28;20538;-68
2021/01/28 10:27:01;;;;;;;1.57;1.30;;;5.90;1.00;;;;;;5093234;28;20221;-67
2021/01/28 10:29:27;;;;;;;3.10;1.53;;;6.00;99.90;;;;;;5091387;28;20167;-68
2021/01/28 10:31:52;;;;;;;3.80;1.73;;;6.20;99.90;;;;;;5093418;28;20730;-68
2021/01/28 10:34:18;;;;;;;2.07;1.30;;;6.20;26.80;;;;;;5093085;28;20193;-68
2021/01/28 10:36:43;;;;;;;1.70;1.17;;;6.10;99.90;;;;;;5093339;28;20171;-68
2021/01/28 10:39:09;;;;;;;1.10;0.90;;;6.20;99.90;;;;;;5093006;28;20569;-68
2021/01/28 10:41:34;;;;;;;3.97;1.90;;;6.10;1.00;;;;;;5091680;28;20195;-68
2021/01/28 10:44:00;;;;;;;2.17;1.27;;;6.20;99.90;;;;;;5092913;28;20171;-68
2021/01/28 10:46:26;;;;;;;4.17;1.90;;;6.20;1.00;;;;;;5093042;28;20480;-68
2021/01/28 10:48:51;;;;;;;3.57;1.20;;;6.40;99.90;;;;;;5092653;28;20182;-66
2021/01/28 10:51:17;;;;;;;2.43;1.40;;;6.40;1.00;;;;;;5096186;28;20663;-68
2021/01/28 10:53:42;;;;;;;1.67;1.23;;;6.50;17.30;;;;;;5097029;28;20207;-68
2021/01/28 10:56:08;;;;;;;2.80;1.20;;;6.50;64.00;;;;;;5097039;28;20182;-68
2021/01/28 10:58:34;;;;;;;3.70;2.00;;;6.50;99.90;;;;;;5096457;28;20729;-69
2021/01/28 11:01:00;;;;;;;4.40;2.00;;;6.30;99.90;;;;;;5096850;28;20191;-69
2021/01/28 11:03:25;;;;;;;2.20;1.20;;;6.40;99.90;;;;;;5096698;28;20186;-67
2021/01/28 11:05:51;;;;;;;2.17;1.40;;;6.50;1.00;;;;;;5096957;28;20638;-68
2021/01/28 11:08:17;;;;;;;1.97;1.00;;;6.60;1.00;;;;;;5096778;28;20190;-68
2021/01/28 11:10:44;;;;;;;1.60;1.33;;;6.60;99.90;;;;;;5096897;28;20830;-68
2021/01/28 11:13:09;;;;;;;1.13;0.85;;;6.40;1.00;;;;;;5096694;28;20179;-68
2021/01/28 11:15:38;;;;;;;2.60;1.67;;;6.40;99.90;;;;;;5094939;28;20175;-68
2021/01/28 11:18:06;;;;;;;1.50;1.20;;;6.40;1.00;;;;;;5096493;28;20160;-68
2021/01/28 11:20:31;;;;;;;1.42;1.10;;;6.30;99.90;;;;;;5096567;28;20294;-68
2021/01/28 11:22:58;;;;;;;1.50;1.07;;;6.20;1.00;;;;;;5097089;28;20189;-68
2021/01/28 11:25:25;;;;;;;1.55;1.10;;;6.30;12.80;;;;;;5096512;28;20182;-68
2021/01/28 11:27:51;;;;;;;1.88;1.10;;;6.40;66.10;;;;;;5096861;28;20174;-68
2021/01/28 11:30:18;;;;;;;1.83;1.47;;;6.60;99.90;;;;;;5097210;28;20195;-68
2021/01/28 11:32:44;;;;;;;1.85;1.55;;;6.60;47.90;;;;;;5095455;28;20582;-68
2021/01/28 11:35:10;;;;;;;1.80;1.47;;;6.60;1.00;;;;;;5096377;28;20217;-69
2021/01/28 11:37:36;;;;;;;2.30;1.30;;;6.60;1.00;;;;;;5096263;28;20170;-68
2021/01/28 11:40:05;;;;;;;1.27;1.00;;;6.50;1.00;;;;;;5096030;28;20191;-68
2021/01/28 11:42:30;;;;;;;4.00;1.80;;;6.60;1.00;;;;;;5096238;28;20543;-69
2021/01/28 11:44:56;;;;;;;2.30;1.40;;;6.50;1.00;;;;;;5095961;28;20167;-69
2021/01/28 11:47:24;;;;;;;2.50;1.47;;;6.50;1.00;;;;;;5096109;28;20199;-69
2021/01/28 11:49:50;;;;;;;2.67;1.40;;;6.60;1.00;;;;;;5096009;28;20513;-69
2021/01/28 11:52:15;;;;;;;1.57;1.43;;;6.80;1.00;;;;;;5095763;28;20164;-65
2021/01/28 11:54:41;;;;;;;3.93;1.30;;;6.90;1.00;;;;;;5095804;28;20368;-70
2021/01/28 11:57:06;;;;;;;2.60;1.23;;;6.90;1.00;;;;;;5095603;28;20164;-67
2021/01/28 11:59:32;;;;;;;2.57;1.10;;;6.90;1.00;;;;;;5094682;28;20641;-69
2021/01/28 12:01:58;;;;;;;2.07;1.40;;;6.90;1.00;;;;;;5094797;28;20155;-69
2021/01/28 12:04:23;;;;;;;1.87;1.10;;;6.80;1.00;;;;;;5096057;28;20854;-69
2021/01/28 12:06:49;;;;;;;1.40;1.00;;;6.70;1.00;;;;;;5095725;28;20179;-69
2021/01/28 12:09:14;;;;;;;2.13;1.10;;;6.70;39.90;;;;;;5095699;28;20655;-68
2021/01/28 12:11:40;;;;;;;4.60;1.60;;;6.70;99.90;;;;;;5095240;28;20191;-69
2021/01/28 12:14:05;;;;;;;2.07;1.50;;;6.90;99.90;;;;;;5095421;28;20251;-69
2021/01/28 12:16:31;;;;;;;1.50;1.00;;;6.70;99.90;;;;;;5095344;28;20171;-68
2021/01/28 12:18:57;;;;;;;1.60;0.93;;;6.60;99.90;;;;;;5096610;28;20221;-69
2021/01/28 12:21:23;;;;;;;3.77;1.57;;;6.50;99.90;;;;;;5095739;28;20739;-69
2021/01/28 12:23:49;;;;;;;1.30;0.88;;;6.60;99.90;;;;;;5095203;28;20664;-69
2021/01/28 12:26:14;;;;;;;1.30;1.17;;;6.60;99.90;;;;;;5095235;28;20198;-69
2021/01/28 12:28:40;;;;;;;2.13;1.47;;;6.90;99.90;;;;;;5094869;28;20232;-69
2021/01/28 12:31:05;;;;;;;3.73;2.83;;;6.80;99.90;;;;;;5094898;28;20211;-68
2021/01/28 12:33:31;;;;;;;3.77;1.70;;;6.80;99.90;;;;;;5095524;28;20526;-69
2021/01/28 12:35:57;;;;;;;2.30;1.20;;;6.70;71.40;;;;;;5095440;28;20529;-69
2021/01/28 12:38:23;;;;;;;0.93;0.77;;;6.80;99.90;;;;;;5095181;28;20913;-68
2021/01/28 12:40:48;;;;;;;1.23;0.80;;;6.80;1.00;;;;;;5095263;28;20232;-68
2021/01/28 12:43:14;;;;;;;5.13;2.03;;;6.90;1.00;;;;;;5096529;28;20199;-69
2021/01/28 12:45:39;;;;;;;1.40;1.07;;;6.80;1.00;;;;;;5095378;28;20170;-69
2021/01/28 12:48:05;;;;;;;1.33;1.00;;;6.70;14.60;;;;;;5095257;28;20173;-69
2021/01/28 12:50:31;;;;;;;1.63;1.10;;;6.80;29.20;;;;;;5094665;28;20202;-69
2021/01/28 12:52:57;;;;;;;2.63;1.00;;;6.70;8.80;;;;;;5095697;28;20620;-68
2021/01/28 12:55:23;;;;;;;1.83;1.02;;;6.60;99.90;;;;;;5095450;28;20603;-68
2021/01/28 12:57:49;;;;;;;2.03;1.20;;;6.50;99.90;;;;;;5095900;28;20628;-68
2021/01/28 13:00:18;;;;;;;1.83;1.00;;;6.70;99.90;;;;;;5094994;28;20228;-68
2021/01/28 13:02:44;;;;;;;1.35;1.08;;;6.70;99.90;;;;;;5094526;28;20689;-68
2021/01/28 13:05:10;;;;;;;1.55;1.20;;;6.80;99.90;;;;;;5094503;28;20651;-69
2021/01/28 13:07:36;;;;;;;2.83;1.48;;;6.80;99.90;;;;;;5094408;28;20191;-69
2021/01/28 13:10:03;;;;;;;1.63;1.00;;;6.90;99.90;;;;;;5093420;28;20203;-69
2021/01/28 13:12:28;;;;;;;3.20;1.38;;;6.90;99.90;;;;;;5093867;28;20199;-68
2021/01/28 13:14:54;;;;;;;2.33;1.30;;;6.90;99.90;;;;;;5094766;28;20203;-68
2021/01/28 13:17:21;;;;;;;1.53;1.23;;;6.70;99.90;;;;;;5095346;28;20203;-68